createdAt,value
2019-01-26T00:02:06.851Z,38.20
2019-01-26T00:04:35.928Z,43.00
2019-01-26T00:07:05.202Z,31.00
2019-01-26T00:09:34.517Z,31.80
2019-01-26T00:12:03.845Z,45.67
2019-01-26T00:14:33.175Z,22.93
2019-01-26T00:17:02.312Z,31.23
2019-01-26T00:19:33.028Z,34.58
2019-01-26T00:22:02.013Z,38.92
2019-01-26T00:24:31.127Z,41.33
2019-01-26T00:27:00.720Z,39.25
2019-01-26T00:29:29.779Z,36.42
2019-01-26T00:32:00.985Z,37.25
2019-01-26T00:34:30.276Z,37.08
2019-01-26T00:36:59.584Z,33.63
2019-01-26T00:39:28.964Z,30.23
2019-01-26T00:41:58.377Z,25.95
2019-01-26T00:44:27.943Z,25.02
2019-01-26T00:46:56.999Z,31.70
2019-01-26T00:49:25.976Z,33.73
2019-01-26T00:51:54.985Z,26.93
2019-01-26T00:54:23.935Z,26.35
2019-01-26T00:56:53.058Z,29.65
2019-01-26T00:59:22.147Z,24.37
2019-01-26T01:01:51.485Z,22.80
2019-01-26T01:04:20.558Z,35.95
2019-01-26T01:06:49.696Z,22.85
2019-01-26T01:09:21.133Z,18.42
2019-01-26T01:11:50.451Z,27.77
2019-01-26T01:14:21.793Z,26.52
2019-01-26T01:16:51.013Z,31.12
2019-01-26T01:19:20.649Z,29.35
2019-01-26T01:21:49.917Z,23.40
2019-01-26T01:24:19.089Z,24.55
2019-01-26T01:26:48.352Z,36.85
2019-01-26T01:29:17.576Z,24.87
2019-01-26T01:31:46.747Z,37.83
2019-01-26T01:34:15.895Z,23.10
2019-01-26T01:36:44.845Z,34.25
2019-01-26T01:39:14.033Z,31.17
2019-01-26T01:41:43.195Z,17.85
2019-01-26T01:44:31.343Z,22.77
2019-01-26T01:50:12.911Z,29.50
2019-01-26T01:53:01.018Z,23.62
2019-01-26T01:55:49.227Z,29.90
2019-01-26T01:58:37.427Z,32.93
2019-01-26T02:04:18.996Z,24.65
2019-01-26T02:09:53.474Z,26.97
2019-01-26T02:12:34.648Z,30.48
2019-01-26T02:15:15.275Z,31.45
2019-01-26T02:17:56.151Z,29.15
2019-01-26T02:20:37.061Z,22.95
2019-01-26T02:23:17.455Z,20.55
2019-01-26T02:25:58.412Z,28.17
2019-01-26T02:28:28.107Z,24.80
2019-01-26T02:30:57.111Z,35.43
2019-01-26T02:33:27.570Z,27.55
2019-01-26T02:35:56.899Z,21.12
2019-01-26T02:38:25.940Z,19.85
2019-01-26T02:40:54.940Z,28.85
2019-01-26T02:43:24.356Z,32.93
2019-01-26T02:45:53.533Z,29.82
2019-01-26T02:48:22.608Z,31.02
2019-01-26T02:50:51.696Z,24.15
2019-01-26T02:53:20.923Z,26.97
2019-01-26T02:55:50.468Z,23.90
2019-01-26T02:58:21.965Z,18.62
2019-01-26T03:00:50.945Z,28.67
2019-01-26T03:03:20.450Z,20.00
2019-01-26T03:05:50.595Z,30.60
2019-01-26T03:08:19.722Z,22.02
2019-01-26T03:10:48.990Z,23.95
2019-01-26T03:13:18.445Z,21.73
2019-01-26T03:15:47.675Z,30.80
2019-01-26T03:18:16.905Z,20.85
2019-01-26T03:20:45.962Z,18.87
2019-01-26T03:23:15.129Z,17.55
2019-01-26T03:25:44.011Z,21.07
2019-01-26T03:28:13.307Z,26.30
2019-01-26T03:30:42.332Z,19.20
2019-01-26T03:33:11.164Z,20.85
2019-01-26T03:35:41.522Z,21.68
2019-01-26T03:38:10.779Z,30.50
2019-01-26T03:40:39.842Z,21.82
2019-01-26T03:43:09.117Z,25.55
2019-01-26T03:45:38.248Z,24.00
2019-01-26T03:48:07.592Z,28.45
2019-01-26T03:50:36.974Z,16.50
2019-01-26T03:53:09.054Z,15.08
2019-01-26T03:55:38.475Z,21.10
2019-01-26T03:58:07.595Z,30.35
2019-01-26T04:00:36.739Z,22.85
2019-01-26T04:03:06.359Z,27.20
2019-01-26T04:05:35.668Z,28.17
2019-01-26T04:08:05.059Z,26.70
2019-01-26T04:10:34.263Z,22.98
2019-01-26T04:13:03.626Z,18.67
2019-01-26T04:15:32.792Z,18.67
2019-01-26T04:18:01.962Z,26.52
2019-01-26T04:20:31.095Z,22.82
2019-01-26T04:23:00.212Z,18.92
2019-01-26T04:25:29.282Z,20.62
2019-01-26T04:27:58.427Z,17.12
2019-01-26T04:30:27.804Z,19.50
2019-01-26T04:32:56.793Z,13.15
2019-01-26T04:35:25.872Z,17.27
2019-01-26T04:37:55.011Z,20.97
2019-01-26T04:40:23.996Z,14.80
2019-01-26T04:42:52.998Z,19.87
2019-01-26T04:45:23.599Z,11.83
2019-01-26T04:47:52.980Z,19.57
2019-01-26T04:50:21.946Z,11.08
2019-01-26T04:52:51.324Z,12.15
2019-01-26T04:55:21.294Z,21.80
2019-01-26T04:57:50.928Z,12.25
2019-01-26T05:00:22.471Z,16.02
2019-01-26T05:02:51.858Z,15.85
2019-01-26T05:05:21.422Z,17.35
2019-01-26T05:07:50.571Z,16.73
2019-01-26T05:10:20.235Z,23.12
2019-01-26T05:12:49.603Z,21.25
2019-01-26T05:15:19.269Z,20.35
2019-01-26T05:17:48.634Z,14.03
2019-01-26T05:20:22.734Z,18.82
2019-01-26T05:22:52.141Z,16.25
2019-01-26T05:25:21.666Z,12.90
2019-01-26T05:27:50.910Z,11.22
2019-01-26T05:30:24.725Z,15.80
2019-01-26T05:32:53.929Z,17.62
2019-01-26T05:35:23.327Z,21.20
2019-01-26T05:37:52.690Z,18.12
2019-01-26T05:40:21.752Z,11.88
2019-01-26T05:42:50.990Z,20.72
2019-01-26T05:45:21.696Z,23.62
2019-01-26T05:47:52.298Z,12.10
2019-01-26T05:50:26.177Z,14.85
2019-01-26T05:52:55.508Z,10.63
2019-01-26T05:55:24.531Z,11.12
2019-01-26T05:57:53.825Z,14.73
2019-01-26T06:00:33.725Z,10.60
2019-01-26T06:03:02.928Z,10.65
2019-01-26T06:05:31.905Z,18.82
2019-01-26T06:08:01.270Z,18.65
2019-01-26T06:10:31.851Z,17.65
2019-01-26T06:13:00.992Z,15.83
2019-01-26T06:15:30.319Z,18.90
2019-01-26T06:17:59.530Z,12.78
2019-01-26T06:20:28.747Z,19.77
2019-01-26T06:22:57.965Z,18.00
2019-01-26T06:25:27.065Z,13.83
2019-01-26T06:27:56.264Z,19.87
2019-01-26T06:30:26.460Z,11.75
2019-01-26T06:32:55.726Z,19.15
2019-01-26T06:35:24.736Z,11.80
2019-01-26T06:37:54.503Z,18.23
2019-01-26T06:40:23.851Z,17.75
2019-01-26T06:42:55.344Z,18.60
2019-01-26T06:45:24.452Z,11.05
2019-01-26T06:47:53.580Z,18.37
2019-01-26T06:50:26.391Z,18.90
2019-01-26T06:52:55.981Z,13.32
2019-01-26T06:55:25.320Z,16.85
2019-01-26T06:57:54.739Z,24.50
2019-01-26T07:00:30.643Z,24.95
2019-01-26T07:02:59.970Z,19.02
2019-01-26T07:05:52.168Z,18.85
2019-01-26T07:08:22.628Z,17.10
2019-01-26T07:10:51.992Z,15.58
2019-01-26T07:13:21.048Z,12.82
2019-01-26T07:15:50.603Z,17.27
2019-01-26T07:18:21.348Z,13.83
2019-01-26T07:20:50.426Z,18.75
2019-01-26T07:23:19.589Z,15.75
2019-01-26T07:25:48.715Z,13.25
2019-01-26T07:28:18.022Z,12.58
2019-01-26T07:30:47.208Z,16.48
2019-01-26T07:33:16.301Z,20.72
2019-01-26T07:35:45.589Z,15.75
2019-01-26T07:38:14.580Z,16.57
2019-01-26T07:40:43.652Z,18.42
2019-01-26T07:43:12.852Z,17.90
2019-01-26T07:45:42.100Z,22.05
2019-01-26T07:48:16.678Z,15.83
2019-01-26T07:50:42.373Z,17.62
2019-01-26T07:53:11.872Z,22.80
2019-01-26T07:55:41.981Z,11.03
2019-01-26T07:58:11.411Z,15.32
2019-01-26T08:00:40.425Z,11.45
2019-01-26T08:03:09.997Z,16.12
2019-01-26T08:05:39.217Z,16.95
2019-01-26T08:08:08.906Z,19.35
2019-01-26T08:10:38.391Z,9.83
2019-01-26T08:13:07.535Z,14.13
2019-01-26T08:15:38.053Z,18.07
2019-01-26T08:18:08.649Z,17.02
2019-01-26T08:20:37.982Z,15.75
2019-01-26T08:23:07.277Z,18.73
2019-01-26T08:25:36.474Z,13.65
2019-01-26T08:28:05.648Z,16.25
2019-01-26T08:30:35.767Z,11.53
2019-01-26T08:33:05.400Z,15.08
2019-01-26T08:35:34.474Z,15.20
2019-01-26T08:38:03.720Z,14.60
2019-01-26T08:40:32.869Z,16.57
2019-01-26T08:43:03.192Z,14.98
2019-01-26T08:45:32.513Z,17.12
2019-01-26T08:48:04.477Z,16.23
2019-01-26T08:50:34.628Z,10.63
2019-01-26T08:53:03.806Z,14.75
2019-01-26T08:55:33.085Z,14.38
2019-01-26T08:58:03.863Z,13.93
2019-01-26T09:00:32.953Z,15.28
2019-01-26T09:03:21.178Z,17.55
2019-01-26T09:06:16.016Z,19.80
2019-01-26T09:08:45.381Z,17.85
2019-01-26T09:11:14.803Z,13.60
2019-01-26T09:13:43.970Z,16.17
2019-01-26T09:16:13.932Z,16.17
2019-01-26T09:18:43.233Z,16.67
2019-01-26T09:21:14.974Z,17.62
2019-01-26T09:23:44.428Z,16.50
2019-01-26T09:26:18.147Z,15.13
2019-01-26T09:28:47.715Z,18.73
2019-01-26T09:31:17.003Z,15.40
2019-01-26T09:33:46.444Z,18.27
2019-01-26T09:36:34.810Z,18.87
2019-01-26T09:39:07.038Z,21.20
2019-01-26T09:41:36.254Z,13.60
2019-01-26T09:44:05.940Z,16.60
2019-01-26T09:46:34.916Z,15.03
2019-01-26T09:49:05.431Z,14.13
2019-01-26T09:51:34.582Z,12.80
2019-01-26T09:54:03.743Z,11.43
2019-01-26T09:56:33.307Z,11.90
2019-01-26T09:59:03.099Z,13.62
2019-01-26T10:01:32.644Z,10.30
2019-01-26T10:04:01.633Z,10.98
2019-01-26T10:06:31.299Z,12.70
2019-01-26T10:09:00.551Z,11.20
2019-01-26T10:11:29.448Z,11.88
2019-01-26T10:13:58.634Z,15.55
2019-01-26T10:16:27.854Z,10.35
2019-01-26T10:18:57.320Z,10.82
2019-01-26T10:21:28.991Z,10.15
2019-01-26T10:23:58.246Z,11.22
2019-01-26T10:26:27.637Z,9.85
2019-01-26T10:28:56.426Z,14.23
2019-01-26T10:31:26.180Z,9.25
2019-01-26T10:33:55.761Z,14.20
2019-01-26T10:36:29.788Z,18.05
2019-01-26T10:39:02.277Z,18.60
2019-01-26T10:41:53.488Z,14.35
2019-01-26T10:44:26.361Z,14.47
2019-01-26T10:46:55.432Z,18.00
2019-01-26T10:49:24.573Z,17.02
2019-01-26T10:51:54.412Z,17.10
2019-01-26T10:54:24.070Z,19.87
2019-01-26T10:56:53.356Z,18.23
2019-01-26T10:59:22.417Z,13.00
2019-01-26T11:01:52.371Z,12.37
2019-01-26T11:04:22.089Z,13.62
2019-01-26T11:06:51.358Z,16.48
2019-01-26T11:09:21.100Z,13.85
2019-01-26T11:11:50.659Z,10.80
2019-01-26T11:14:19.957Z,12.63
2019-01-26T11:16:49.011Z,14.53
2019-01-26T11:19:18.263Z,14.05
2019-01-26T11:21:47.460Z,17.00
2019-01-26T11:24:16.571Z,10.88
2019-01-26T11:26:49.495Z,16.37
2019-01-26T11:29:22.500Z,12.58
2019-01-26T11:31:51.884Z,20.40
2019-01-26T11:34:21.164Z,12.30
2019-01-26T11:36:50.274Z,11.70
2019-01-26T11:39:19.381Z,14.45
2019-01-26T11:41:49.913Z,7.67
2019-01-26T11:44:19.460Z,10.95
2019-01-26T11:47:10.279Z,10.93
2019-01-26T11:49:44.036Z,14.85
2019-01-26T11:52:13.968Z,8.13
2019-01-26T11:55:15.199Z,10.23
2019-01-26T11:57:44.397Z,11.63
2019-01-26T12:00:31.708Z,12.18
2019-01-26T12:03:06.535Z,7.65
2019-01-26T12:05:40.939Z,11.97
2019-01-26T12:08:12.730Z,10.50
2019-01-26T12:10:43.101Z,11.30
2019-01-26T12:13:12.600Z,13.43
2019-01-26T12:15:43.918Z,10.25
2019-01-26T12:18:15.197Z,13.98
2019-01-26T12:20:44.313Z,11.43
2019-01-26T12:23:13.848Z,12.53
2019-01-26T12:25:43.090Z,10.75
2019-01-26T12:28:12.865Z,12.53
2019-01-26T12:30:42.041Z,8.60
2019-01-26T12:33:11.516Z,12.20
2019-01-26T12:35:40.806Z,8.13
2019-01-26T12:38:12.408Z,11.55
2019-01-26T12:40:41.798Z,8.45
2019-01-26T12:43:11.332Z,10.48
2019-01-26T12:45:40.782Z,8.88
2019-01-26T12:48:15.162Z,7.65
2019-01-26T12:50:44.271Z,10.60
2019-01-26T12:53:13.364Z,10.68
2019-01-26T12:55:42.671Z,9.05
2019-01-26T12:58:12.144Z,14.38
2019-01-26T13:00:41.585Z,11.22
2019-01-26T13:03:10.899Z,12.65
2019-01-26T13:05:41.552Z,18.48
2019-01-26T13:08:10.821Z,10.88
2019-01-26T13:10:44.440Z,10.38
2019-01-26T13:13:13.451Z,7.87
2019-01-26T13:15:42.582Z,12.00
2019-01-26T13:18:13.517Z,8.55
2019-01-26T13:20:43.132Z,10.58
2019-01-26T13:23:12.214Z,9.10
2019-01-26T13:25:41.413Z,11.05
2019-01-26T13:28:11.139Z,7.28
2019-01-26T13:30:40.517Z,6.40
2019-01-26T13:33:09.696Z,7.47
2019-01-26T13:35:38.842Z,6.78
2019-01-26T13:38:08.071Z,9.93
2019-01-26T13:40:37.913Z,13.38
2019-01-26T13:43:07.157Z,10.18
2019-01-26T13:45:37.313Z,9.18
2019-01-26T13:48:08.470Z,8.58
2019-01-26T13:50:37.624Z,11.75
2019-01-26T13:53:06.955Z,8.93
2019-01-26T13:55:36.127Z,9.90
2019-01-26T13:58:05.723Z,7.50
2019-01-26T14:00:36.477Z,9.60
2019-01-26T14:03:06.278Z,11.65
2019-01-26T14:05:36.139Z,10.08
2019-01-26T14:08:05.553Z,8.13
2019-01-26T14:10:35.933Z,8.60
2019-01-26T14:13:05.711Z,9.40
2019-01-26T14:15:34.801Z,8.50
2019-01-26T14:18:04.642Z,7.10
2019-01-26T14:20:33.955Z,8.55
2019-01-26T14:23:03.935Z,9.18
2019-01-26T14:25:33.744Z,11.03
2019-01-26T14:28:03.281Z,14.40
2019-01-26T14:30:35.506Z,8.40
2019-01-26T14:33:05.254Z,9.08
2019-01-26T14:35:35.737Z,9.98
2019-01-26T14:38:05.456Z,8.98
2019-01-26T14:40:35.410Z,8.15
2019-01-26T14:43:05.114Z,7.40
2019-01-26T14:45:34.659Z,8.25
2019-01-26T14:48:04.614Z,8.45
2019-01-26T14:50:33.803Z,8.68
2019-01-26T14:53:02.958Z,10.08
2019-01-26T14:55:36.478Z,8.68
2019-01-26T14:58:06.933Z,6.42
2019-01-26T15:00:36.987Z,9.25
2019-01-26T15:03:06.091Z,9.73
2019-01-26T15:05:36.191Z,11.05
2019-01-26T15:08:07.417Z,8.73
2019-01-26T15:10:37.041Z,6.60
2019-01-26T15:13:07.078Z,8.45
2019-01-26T15:15:38.684Z,8.20
2019-01-26T15:18:07.906Z,8.08
2019-01-26T15:20:41.155Z,7.67
2019-01-26T15:23:12.387Z,6.97
2019-01-26T15:25:42.743Z,8.53
2019-01-26T15:28:11.913Z,10.98
2019-01-26T15:30:43.211Z,9.88
2019-01-26T15:33:12.684Z,8.70
2019-01-26T15:35:41.752Z,9.28
2019-01-26T15:38:12.226Z,9.70
2019-01-26T15:40:42.128Z,5.60
2019-01-26T15:43:11.326Z,7.28
2019-01-26T15:45:46.696Z,6.10
2019-01-26T15:48:16.289Z,7.12
2019-01-26T15:50:46.391Z,14.55
2019-01-26T15:53:16.401Z,8.58
2019-01-26T15:55:45.738Z,5.80
2019-01-26T15:58:15.041Z,6.60
2019-01-26T16:00:47.466Z,6.75
2019-01-26T16:03:16.532Z,7.72
2019-01-26T16:05:46.261Z,7.25
2019-01-26T16:08:15.492Z,6.97
2019-01-26T16:10:44.866Z,9.40
2019-01-26T16:13:14.189Z,9.05
2019-01-26T16:15:43.305Z,10.03
2019-01-26T16:18:14.698Z,7.08
2019-01-26T16:20:44.503Z,7.75
2019-01-26T16:23:13.716Z,8.13
2019-01-26T16:25:43.566Z,10.70
2019-01-26T16:28:12.815Z,10.13
2019-01-26T16:30:41.958Z,10.72
2019-01-26T16:33:11.410Z,10.32
2019-01-26T16:35:40.763Z,11.12
2019-01-26T16:38:09.857Z,10.65
2019-01-26T16:40:39.006Z,8.10
2019-01-26T16:43:08.597Z,8.98
2019-01-26T16:45:39.340Z,10.55
2019-01-26T16:48:14.228Z,12.07
2019-01-26T16:50:43.856Z,9.23
2019-01-26T16:53:12.903Z,13.43
2019-01-26T16:55:42.296Z,7.55
2019-01-26T16:58:14.994Z,14.78
2019-01-26T17:00:49.515Z,14.00
2019-01-26T17:03:21.263Z,14.23
2019-01-26T17:05:51.651Z,13.00
2019-01-26T17:08:21.213Z,16.05
2019-01-26T17:10:50.466Z,16.25
2019-01-26T17:13:19.965Z,13.13
2019-01-26T17:15:49.721Z,12.45
2019-01-26T17:18:19.231Z,10.18
2019-01-26T17:20:49.015Z,11.75
2019-01-26T17:23:20.103Z,11.68
2019-01-26T17:25:49.668Z,10.82
2019-01-26T17:28:19.081Z,9.75
2019-01-26T17:30:48.859Z,14.03
2019-01-26T17:33:17.996Z,15.30
2019-01-26T17:35:47.331Z,16.25
2019-01-26T17:38:18.042Z,16.35
2019-01-26T17:40:54.069Z,13.10
2019-01-26T17:43:18.202Z,11.35
2019-01-26T17:45:48.276Z,16.82
2019-01-26T17:48:19.158Z,15.63
2019-01-26T17:50:48.323Z,17.25
2019-01-26T17:53:18.673Z,10.98
2019-01-26T17:55:48.388Z,9.98
2019-01-26T17:58:17.489Z,12.40
2019-01-26T18:01:01.036Z,12.73
2019-01-26T18:03:30.240Z,10.80
2019-01-26T18:06:01.015Z,11.48
2019-01-26T18:08:30.467Z,8.80
2019-01-26T18:10:59.960Z,9.88
2019-01-26T18:13:29.227Z,10.70
2019-01-26T18:15:58.878Z,9.48
2019-01-26T18:18:28.875Z,10.00
2019-01-26T18:20:58.290Z,10.95
2019-01-26T18:23:30.730Z,6.95
2019-01-26T18:26:02.681Z,11.22
2019-01-26T18:28:31.838Z,10.38
2019-01-26T18:31:01.620Z,12.93
2019-01-26T18:33:31.905Z,11.43
2019-01-26T18:36:01.045Z,8.78
2019-01-26T18:38:30.839Z,7.65
2019-01-26T18:41:02.848Z,10.65
2019-01-26T18:43:31.977Z,8.03
2019-01-26T18:46:01.421Z,10.30
2019-01-26T18:48:30.956Z,10.30
2019-01-26T18:51:01.161Z,10.08
2019-01-26T18:53:30.712Z,8.90
2019-01-26T18:55:59.846Z,7.53
2019-01-26T18:58:29.511Z,7.72
2019-01-26T19:00:58.658Z,7.37
2019-01-26T19:03:50.204Z,8.35
2019-01-26T19:06:19.439Z,9.15
2019-01-26T19:08:48.641Z,10.55
2019-01-26T19:11:18.077Z,10.68
2019-01-26T19:13:47.496Z,8.03
2019-01-26T19:16:17.725Z,10.58
2019-01-26T19:18:47.090Z,9.85
2019-01-26T19:21:16.345Z,11.57
2019-01-26T19:23:45.506Z,9.65
2019-01-26T19:26:14.581Z,9.35
2019-01-26T19:28:43.786Z,8.60
2019-01-26T19:31:12.858Z,9.85
2019-01-26T19:33:42.111Z,9.83
2019-01-26T19:36:11.262Z,7.67
2019-01-26T19:38:40.613Z,7.10
2019-01-26T19:41:09.965Z,8.05
2019-01-26T19:43:39.219Z,8.40
2019-01-26T19:46:08.327Z,10.43
2019-01-26T19:48:40.362Z,8.98
2019-01-26T19:51:09.953Z,8.75
2019-01-26T19:53:39.854Z,8.55
2019-01-26T19:56:08.903Z,11.05
2019-01-26T19:58:39.659Z,8.90
2019-01-26T20:01:12.257Z,6.37
2019-01-26T20:03:42.431Z,7.80
2019-01-26T20:06:11.548Z,7.50
2019-01-26T20:08:41.639Z,8.58
2019-01-26T20:11:12.261Z,8.43
2019-01-26T20:13:41.648Z,7.50
2019-01-26T20:16:10.704Z,6.62
2019-01-26T20:18:40.118Z,8.40
2019-01-26T20:21:09.113Z,7.30
2019-01-26T20:23:38.624Z,7.30
2019-01-26T20:26:07.719Z,11.00
2019-01-26T20:28:39.274Z,8.80
2019-01-26T20:31:09.045Z,10.25
2019-01-26T20:33:37.926Z,4.85
2019-01-26T20:36:07.027Z,8.33
2019-01-26T20:38:36.268Z,8.53
2019-01-26T20:41:06.047Z,10.20
2019-01-26T20:43:35.777Z,8.60
2019-01-26T20:46:05.234Z,11.25
2019-01-26T20:48:34.562Z,9.60
2019-01-26T20:51:03.857Z,9.15
2019-01-26T20:53:32.892Z,8.65
2019-01-26T20:56:01.990Z,9.30
2019-01-26T20:58:35.735Z,8.98
2019-01-26T21:01:06.110Z,9.20
2019-01-26T21:03:35.951Z,7.35
2019-01-26T21:06:05.061Z,6.37
2019-01-26T21:08:34.227Z,9.88
2019-01-26T21:11:03.547Z,8.90
2019-01-26T21:13:32.690Z,8.30
2019-01-26T21:16:01.963Z,5.95
2019-01-26T21:18:31.720Z,6.42
2019-01-26T21:21:02.163Z,8.70
2019-01-26T21:23:33.665Z,8.80
2019-01-26T21:26:03.512Z,5.90
2019-01-26T21:28:32.572Z,11.28
2019-01-26T21:31:02.172Z,9.68
2019-01-26T21:33:33.199Z,7.97
2019-01-26T21:36:05.871Z,7.95
2019-01-26T21:38:35.888Z,9.55
2019-01-26T21:41:05.164Z,7.75
2019-01-26T21:43:34.191Z,8.15
2019-01-26T21:46:03.992Z,8.95
2019-01-26T21:48:33.136Z,9.73
2019-01-26T21:51:02.645Z,9.70
2019-01-26T21:53:31.957Z,10.08
2019-01-26T21:56:00.924Z,9.13
2019-01-26T21:58:30.021Z,10.03
2019-01-26T22:00:59.146Z,7.47
2019-01-26T22:03:28.134Z,10.13
2019-01-26T22:05:57.411Z,10.00
2019-01-26T22:08:26.447Z,9.88
2019-01-26T22:10:56.176Z,9.65
2019-01-26T22:13:27.957Z,8.43
2019-01-26T22:15:57.110Z,6.80
2019-01-26T22:18:26.189Z,9.35
2019-01-26T22:20:55.187Z,7.58
2019-01-26T22:23:24.169Z,5.08
2019-01-26T22:25:53.084Z,8.43
2019-01-26T22:28:22.247Z,8.88
2019-01-26T22:30:51.757Z,5.47
2019-01-26T22:33:20.857Z,6.62
2019-01-26T22:35:49.750Z,5.92
2019-01-26T22:38:19.249Z,7.92
2019-01-26T22:40:48.647Z,10.78
2019-01-26T22:43:17.900Z,5.92
2019-01-26T22:45:47.031Z,8.63
2019-01-26T22:48:16.344Z,8.50
2019-01-26T22:50:45.383Z,10.95
2019-01-26T22:53:14.506Z,6.70
2019-01-26T22:55:43.971Z,7.12
2019-01-26T22:58:13.307Z,6.75
2019-01-26T23:01:09.596Z,7.95
2019-01-26T23:04:03.335Z,6.37
2019-01-26T23:06:56.612Z,7.03
2019-01-26T23:10:01.552Z,5.33
2019-01-26T23:12:48.525Z,6.95
2019-01-26T23:15:57.967Z,5.85
2019-01-26T23:19:00.715Z,5.03
2019-01-26T23:22:13.207Z,8.30
2019-01-26T23:24:53.609Z,5.12
2019-01-26T23:27:51.746Z,6.50
2019-01-26T23:31:13.815Z,6.28
2019-01-26T23:33:43.368Z,5.95
2019-01-26T23:36:12.615Z,6.83
2019-01-26T23:38:42.296Z,5.95
2019-01-26T23:41:24.436Z,6.33
2019-01-26T23:43:54.639Z,6.97
2019-01-26T23:46:25.905Z,7.10
2019-01-26T23:48:56.591Z,7.08
2019-01-26T23:51:46.870Z,6.33
2019-01-26T23:54:35.196Z,6.10
2019-01-26T23:57:23.837Z,8.35
2019-01-26T23:59:53.191Z,4.78
